North Bay Airport
CYYB : now visible

Airfield :











YOU CAN JOIN US ON...

 
LOGIN :

Register | Disclaimer

   EN    FR    IT 

 









Legend :    VFR   Marginal VFR   IFR   Intensive IFR   Very Intensive IFR
Visi :
Ceiling :
>= 8 km
>= 3000ft
5 to 8 km
1000 to 3000 ft
1500m to 5 km
500 to 1000 ft
800 to 1500m
200 to 500 ft
< 800m
< 200 ft
Symbols :   Thunderstorms  Fog  Heavy snow  Heavy precipitations  Wind > 20 kt







- Airport Elevation : 1215 ft
- IATA code : YYB


CYYB - North Bay

CURRENT METAR :
  • 210100Z 09005KT 050V180 15SM BKN044 OVC088 06/05 A2974 RMK SC5AC3 SLP083

EXPIRED METARs :
  • 210050Z VRB05KT 15SM SCT044 BKN088 06/05 A2973 RMK SC4AC3 SLP082
  • 210000Z 07006KT 040V180 5SM -RA OVC045 07/06 A2973 RMK SC8 SLP081
  • 202334Z 08017G23KT 15SM -RA BKN043 08/03 A2973 RMK SC7 VIS S 3 SLP081
  • 202300Z 06012KT 30SM BKN046 09/02 A2973 RMK SC7 SLP080

TAF TAF CYYB
Valid from the 21 at 02:00 until the 21 at 14:00 UTC


210138Z 2102/2114 07006KT P6SM OVC030
TEMPO 2102/2109 5SM -SHRA RA BR OVC015
PROB30 2104/2108 3SM -DZ BR OVC006
FM210900 29006KT P6SM BKN012
BECMG 2109/2111 SCT250 RMK NXT FCST BY 210800Z
CZYZ FIR / North America



MET'MAP, your aeronautical weather chart ! - Copyright ORBIFLY December 2007 - Disclaimer

ORBIFLY MET'MAP TEAM :

Programming & Development : Alexandra Zaïnal
Concept & Development : Baudouin d'Aumeries
Co-Development & Prog : Marc-Olivier Méhu
Technical & hardware support : Manuel Goepfert

Contact : metmap@orbifly.com




SOURCES & CREDITS :

   NOAA       Earth
Advisory